LHBP/BUD METAR and TAF weather

Enter ICAO airport designator
Station Type Date Time Source
LHBP METAR 2020/01/18 13:00 UTC NOAA

LHBP 181300Z 12005KT 100V160 2500 BR OVC004 M01/M01 Q1025 NOSIG


Station Type Date Time Source
LHBP Decoded METAR 2020/01/18 13:00 UTC NOAA

Budapest / Ferihegy, Hungary (LHBP) 47-26N 019-16E 185M
Jan 18, 2020 - 08:00 AM EST / 2020.01.18 1300 UTC
Wind: from the ESE (120 degrees) at 6 MPH (5 KT) (direction variable):0
Visibility: 1 mile(s):0
Sky conditions: overcast
Weather: mist
Temperature: 30 F (-1 C)
Windchill: 23 F (-5 C):1
Dew Point: 30 F (-1 C)
Relative Humidity: 100%
Pressure (altimeter): 30.27 in. Hg (1025 hPa)
ob: LHBP 181300Z 12005KT 100V160 2500 BR OVC004 M01/M01 Q1025 NOSIG
cycle: 13

Station Type Date Time Source
LHBP TAF 2020/01/18 12:27 UTC NOAA

TAF TAF LHBP 181115Z 1812/1912 11005KT 3000 BR OVC005
BECMG 1812/1814 VRB03KT
TEMPO 1812/1912 0300 -FZDZ -SG FZFG OVC001

Example: see airport list